Terminal Aerodrome Forecast
Issued by NWS Wakefield, VA

Current Version | Previous Version | Text Only | Print | Product List | Glossary On
Versions: 1 2 3 4 5 6 7 8 9 10 11 12 13 14 15 16 17
000
FTUS41 KAKQ 291138
TAFORF
TAF
KORF 291138Z 2912/3012 09004KT 5SM BR OVC002
      TEMPO 2912/2913 P6SM NSW SCT002 BKN250
     FM291300 10004KT P6SM SCT005 BKN250
     FM291400 12007KT P6SM -SHRA SCT015 BKN120 OVC200
     FM291700 13008KT 4SM RA BR BKN025 BKN070 OVC150=

USA.gov is the U.S. government's official web portal to all federal, state and local government web resources and services.